Portada
METAR-TAF:

METAR-TAF

Aeroports :

Benson, Anglaterra

latitud: 51-37N, longitud: 001-05W, altitud: 63 m

Observació

L'informe es va fer fa 1 hora i 2 minuts, a les 18:50 UTC
Vent 6 kt del Sud-Est
Temperatura 23°C
Humitat 44%
Pressió 1016 hPa
Visibilitat 10 km o més

METAR: EGUB 241850Z AUTO 13006KT 9999 // NCD 23/10 Q1016

Hora: 20:52 (19:52 UTC)

Pronòstic

L'informe es va fer fa 27 hores i 20 minuts, a les 16:32 UTC
Pronòstic vàlid del 23 a les 18 UTC al 24 a les 12 UTC
Vent 5 kt del Sud/Sud-Est
Visibilitat 10 km o més
sense núvols per sota de 1500 mi sense presència de cumulonimbus.

TAF: EGUB 231632Z 2318/2412 15005KT CAVOK

Observacions i pronòstics meteorològics de més de 4000 aeroports (METAR i TAF).

Les estacions disponibles són els punts grocs i vermells al mapa.

Posi el ratolí al punt desitjat per veure el nom de l'estació.

Feu clic per veure les observacions i els pronòstics meteorològics.

Per canviar el mapa: feu clic els botons verds amb una creu de color negre per apropar; al botó verd amb un guió per allunyar la imatge; o en les fletxes verdes per a mapes adjacents.


METAR-TAF: